Flight Track Log - Related Links

Times and Time Zones

All times are in EDT time to prevent confusion due to time zone crossing. See the AAL864 flight status page for this flight to view local times or setup timezone preferences in your user account.

Time Position Orientation Groundspeed Altitude Reporting Facility
EDT Latitude Longitude Course Direction KTS MPH feet Rate Location/Type
Fri 05:45:15 PM 23.1752 -109.7025 32° Northeast  Level FlightAware Approximate
Fri 05:46:15 PM 23.2551 -109.6116 31° Northeast  Level FlightAware Approximate
Fri 05:47:15 PM 23.3491 -109.5382 31° Northeast  Level FlightAware Approximate
Fri 05:48:15 PM 23.4427 -109.4640 31° Northeast  Level FlightAware Approximate
Fri 05:49:15 PM 23.5388 -109.3939 31° Northeast  Level FlightAware Approximate
Fri 05:50:15 PM 23.6328 -109.3202 31° Northeast  Level FlightAware Approximate
Fri 05:51:15 PM 23.7263 -109.2456 31° Northeast  Level FlightAware Approximate
Fri 05:52:15 PM 23.8197 -109.1709 31° Northeast  Level FlightAware Approximate
Fri 05:53:15 PM 23.9119 -109.0945 31° Northeast  Level FlightAware Approximate
Fri 05:54:15 PM 24.0053 -109.0196 31° Northeast  Level FlightAware Approximate
Fri 05:55:15 PM 24.1000 -108.9467 31° Northeast  Level FlightAware Approximate
Fri 05:56:15 PM 24.1933 -108.8715 31° Northeast  Level FlightAware Approximate
Fri 05:57:15 PM 24.2819 -108.7901 31° Northeast  Level FlightAware Approximate
Fri 05:58:15 PM 24.3775 -108.7196 31° Northeast  Level FlightAware Approximate
Fri 05:59:15 PM 24.4685 -108.6413 31° Northeast  Level FlightAware Approximate
Fri 06:00:15 PM 24.5608 -108.5647 30° Northeast  Level FlightAware Approximate
Fri 06:01:15 PM 24.6538 -108.4888 30° Northeast  Level FlightAware Approximate
Fri 06:02:15 PM 24.7467 -108.4128 30° Northeast  Level FlightAware Approximate
Fri 06:03:15 PM 24.8396 -108.3368 30° Northeast  Level FlightAware Approximate
Fri 06:04:15 PM 24.9325 -108.2606 30° Northeast  Level FlightAware Approximate
Fri 06:05:15 PM 25.0254 -108.1842 30° Northeast  Level FlightAware Approximate
Fri 06:06:15 PM 25.1181 -108.1078 30° Northeast  Level FlightAware Approximate
Fri 06:07:15 PM 25.2149 -108.0377 30° Northeast  Level FlightAware Approximate
Fri 06:08:15 PM 25.3076 -107.9609 30° Northeast  Level FlightAware Approximate
Fri 06:09:15 PM 25.4001 -107.8840 29° Northeast  Level FlightAware Approximate
Fri 06:10:15 PM 25.4927 -107.8070 29° Northeast  Level FlightAware Approximate
Fri 06:11:15 PM 25.5852 -107.7298 29° Northeast  Level FlightAware Approximate
Fri 06:12:15 PM 25.6776 -107.6525 29° Northeast  Level FlightAware Approximate
Fri 06:13:15 PM 25.7701 -107.5751 29° Northeast  Level FlightAware Approximate
Fri 06:14:15 PM 25.8624 -107.4976 28° Northeast  Level FlightAware Approximate
Fri 06:15:15 PM 25.9548 -107.4200 28° Northeast  Level FlightAware Approximate
Fri 06:16:15 PM 26.0471 -107.3422 28° Northeast  Level FlightAware Approximate
Fri 06:17:15 PM 26.1393 -107.2644 28° Northeast  Level FlightAware Approximate
Fri 06:18:15 PM 26.2315 -107.1863 27° Northeast  Level FlightAware Approximate
Fri 06:19:15 PM 26.3237 -107.1082 27° Northeast  Level FlightAware Approximate
Fri 06:20:15 PM 26.4158 -107.0300 27° Northeast  Level FlightAware Approximate
Fri 06:21:15 PM 26.5079 -106.9516 26° Northeast  Level FlightAware Approximate
Fri 06:22:15 PM 26.5999 -106.8731 26° Northeast  Level FlightAware Approximate
Fri 06:23:15 PM 26.6919 -106.7945 26° Northeast  Level FlightAware Approximate
Fri 06:24:15 PM 26.7869 -106.7206 25° Northeast  Level FlightAware Approximate
Fri 06:25:15 PM 26.8739 -106.6350 24° Northeast  Level FlightAware Approximate
Fri 06:26:15 PM 26.9608 -106.5493 24° Northeast  Level FlightAware Approximate
Fri 06:27:15 PM 27.0477 -106.4634 23° Northeast  Level FlightAware Approximate
Fri 06:28:15 PM 27.1346 -106.3775 22° Northeast  Level FlightAware Approximate
Fri 06:29:15 PM 27.2213 -106.2913 21° North  Level FlightAware Approximate
Fri 06:30:15 PM 27.3081 -106.2051 20° North  Level FlightAware Approximate
Fri 06:31:15 PM 27.3948 -106.1187 19° North  Level FlightAware Approximate
Fri 06:32:15 PM 27.4814 -106.0322 17° North  Level FlightAware Approximate
Fri 06:33:15 PM 27.5680 -105.9455 16° North  Level FlightAware Approximate
Fri 06:34:15 PM 27.6545 -105.8587 14° North  Level FlightAware Approximate
Fri 06:35:15 PM 27.7410 -105.7717 12° North  Level FlightAware Approximate
Fri 06:36:15 PM 27.8274 -105.6847 10° North  Level FlightAware Approximate
Fri 06:37:15 PM 27.9137 -105.5974 North  Level FlightAware Approximate
Fri 06:38:15 PM 28.0000 -105.5101 North  Level FlightAware Approximate
Fri 06:39:15 PM 28.0863 -105.4226 North  Level FlightAware Approximate
Fri 06:40:15 PM 28.1725 -105.3350 356° North  Level FlightAware Approximate
Fri 06:41:15 PM 28.2598 -105.2395 351° North  Level FlightAware Approximate
Fri 06:42:15 PM 28.3470 -105.1438 345° North  Level FlightAware Approximate
Fri 06:43:15 PM 28.4342 -105.0480 338° Northwest  Level FlightAware Approximate
Fri 06:44:15 PM 28.5213 -104.9520 330° Northwest  Level FlightAware Approximate
Fri 06:45:15 PM 28.6083 -104.8559 321° Northwest  Level FlightAware Approximate
Fri 06:46:00 PM 29.2156 -105.4111 50° Northeast 435 501 34,900  Level Albuquerque Center
Fri 06:47:00 PM 29.3031 -105.2928 48° Northeast 448 516 34,900  Level Albuquerque Center
Fri 06:48:00 PM 29.3928 -105.1767 50° Northeast 470 541 34,900  Level Albuquerque Center
Fri 06:49:00 PM 29.4819 -105.0556 49° Northeast 486 559 34,900  Level Albuquerque Center
Fri 06:50:00 PM 29.5714 -104.9367 49° Northeast 491 565 34,900  Level Albuquerque Center
Fri 06:51:00 PM 29.6583 -104.8200 51° Northeast 491 565 34,900  Level Albuquerque Center
Fri 06:52:00 PM 29.7433 -104.6983 67° East 491 565 34,900  Level Albuquerque Center
Fri 06:53:00 PM 29.7961 -104.5536 67° East 491 565 34,900  Level Albuquerque Center
Fri 06:54:00 PM 29.8508 -104.4039 66° East 486 559 34,900  Level Albuquerque Center
Fri 06:55:00 PM 29.9075 -104.2564 66° East 496 571 34,900  Level Albuquerque Center
Fri 06:56:00 PM 29.9622 -104.1133 66° East 496 571 34,900  Level Albuquerque Center
Fri 06:57:00 PM 30.0183 -103.9656 66° East 496 571 34,900  Level Albuquerque Center
Fri 06:58:00 PM 30.0747 -103.8197 66° East 496 571 34,900  Level Albuquerque Center
Fri 06:59:00 PM 30.1286 -103.6786 66° East 491 565 34,900  Level Albuquerque Center
Fri 07:00:00 PM 30.1844 -103.5303 68° East 485 558 34,900  Level Albuquerque Center
Fri 07:01:00 PM 30.2358 -103.3817 66° East 490 564 34,900  Level Albuquerque Center
Fri 07:02:00 PM 30.2914 -103.2353 66° East 490 564 34,900  Level Albuquerque Center
Fri 07:03:00 PM 30.3486 -103.0861 66° East 495 570 34,900  Level Albuquerque Center
Fri 07:04:00 PM 30.4039 -102.9394 67° East 495 570 34,900  Level Albuquerque Center
Fri 07:05:31 PM 30.4806 -102.7314 66° East 503 579 34,900  Level Houston Center
Fri 07:06:31 PM 30.5367 -102.5814 67° East 508 585 34,900  Level Houston Center
Fri 07:07:31 PM 30.5925 -102.4308 67° East 508 585 34,900  Level Houston Center
Fri 07:12:36 PM 30.8814 -101.6367 67° East 527 606 34,900 16 Level Fort Worth Center
Fri 07:13:36 PM 30.9364 -101.4889 68° East 512 589 35,000 50 Climbing Fort Worth Center
Fri 07:14:36 PM 30.9894 -101.3336 67° East 512 589 35,000 -50 Level Fort Worth Center
Fri 07:15:36 PM 31.0442 -101.1833 66° East 517 595 34,900 -50 Descending Fort Worth Center
Fri 07:16:36 PM 31.0961 -101.0447 68° East 511 588 34,900  Level Fort Worth Center
Fri 07:17:36 PM 31.1486 -100.8889 68° East 516 594 34,900  Level Fort Worth Center
Fri 07:18:36 PM 31.2028 -100.7356 68° East 521 600 34,900  Level Fort Worth Center
Fri 07:19:36 PM 31.2569 -100.5819 68° East 515 593 34,900  Level Fort Worth Center
Fri 07:20:36 PM 31.3108 -100.4283 67° East 510 587 34,900  Level Fort Worth Center
Fri 07:21:36 PM 31.3644 -100.2767 69° East 504 580 34,900  Level Fort Worth Center
Fri 07:22:36 PM 31.4158 -100.1225 69° East 504 580 34,900 50 Level Fort Worth Center
Fri 07:23:36 PM 31.4650 -99.9681 69° East 509 586 35,000 50 Climbing Fort Worth Center
Fri 07:24:36 PM 31.5161 -99.8136 68° East 509 586 35,000  Level Fort Worth Center
Fri 07:25:36 PM 31.5689 -99.6589 67° East 509 586 35,000  Level Fort Worth Center
Fri 07:26:36 PM 31.6217 -99.5114 67° East 503 579 35,000  Level Fort Worth Center
Fri 07:27:36 PM 31.6764 -99.3589 64° Northeast 503 579 35,000  Level Fort Worth Center
Fri 07:28:36 PM 31.7369 -99.2136 66° East 497 572 35,000  Level Fort Worth Center
Fri 07:29:36 PM 31.7953 -99.0583 64° Northeast 503 579 35,000 -500 Level Fort Worth Center
Fri 07:30:36 PM 31.8558 -98.9103 66° East 503 579 34,000 -1,550 Descending Fort Worth Center
Fri 07:31:36 PM 31.9139 -98.7594 65° Northeast 503 579 31,900 -2,350 Descending Fort Worth Center
Fri 07:32:36 PM 31.9717 -98.6158 66° East 494 568 29,300 -2,550 Descending Fort Worth Center
Fri 07:33:36 PM 32.0250 -98.4769 66° East 483 556 26,800 -2,400 Descending Fort Worth Center
Fri 07:34:36 PM 32.0806 -98.3281 64° Northeast 478 550 24,500 -2,450 Descending Fort Worth Center
Fri 07:35:36 PM 32.1442 -98.1739 66° East 477 549 21,900 -2,550 Descending Fort Worth Center
Fri 07:36:36 PM 32.1972 -98.0344 65° Northeast 467 537 19,400 -2,600 Descending Fort Worth Center
Fri 07:37:36 PM 32.2478 -97.9047 64° Northeast 455 524 16,700 -2,440 Descending Fort Worth Center
Fri 07:38:07 PM 32.2708 -97.8481 67° East 422 486 15,700 -2,113 Descending FAA TRACON SMA TRACON (SMA)
Fri 07:38:47 PM 32.3022 -97.7614 65° Northeast 412 474 14,200 -2,148 Descending FAA TRACON SMA TRACON (SMA)
Fri 07:39:28 PM 32.3347 -97.6794 49° Northeast 396 456 12,800 -1,920 Descending FAA TRACON SMA TRACON (SMA)
Fri 07:40:27 PM 32.4053 -97.5847 46° Northeast 378 435 11,000 -950 Descending FAA TRACON SMA TRACON (SMA)
Fri 07:41:28 PM 32.4744 -97.5011 45° Northeast 348 400 10,900 -59 Descending FAA TRACON SMA TRACON (SMA)
Fri 07:42:08 PM 32.5217 -97.4442 46° Northeast 349 402 10,900  Level FAA TRACON SMA TRACON (SMA)
Fri 07:42:47 PM 32.5633 -97.3928 45° Northeast 350 403 10,900  Level FAA TRACON SMA TRACON (SMA)
Fri 07:43:29 PM 32.6106 -97.3367 46° Northeast 348 400 10,900  Level FAA TRACON SMA TRACON (SMA)
Fri 07:44:09 PM 32.6578 -97.2794 45° Northeast 350 403 10,900  Level FAA TRACON SMA TRACON (SMA)
Fri 07:45:29 PM 32.7403 -97.1800 North 300 345 10,900 -171 Level FAA TRACON SMA TRACON (SMA)
Fri 07:46:29 PM 32.8164 -97.1742 North 282 325 10,500 -1,069 Descending FAA TRACON SMA TRACON (SMA)
Fri 07:47:10 PM 32.8714 -97.1714 North 286 329 9,100 -2,000 Descending FAA TRACON SMA TRACON (SMA)
Fri 07:47:50 PM 32.9219 -97.1694 North 292 336 7,800 -1,138 Descending FAA TRACON SMA TRACON (SMA)
Fri 07:49:06 PM 32.9736 -97.1672 North 264 304 6,900 -1,916 Descending FAA TRACON SMA TRACON (SMA)
Fri 07:49:49 PM 33.0667 -97.1561 62° Northeast 264 304 4,000 -2,571 Descending FAA TRACON SMA TRACON (SMA)
Fri 07:50:30 PM 33.0864 -97.1114 88° East 231 266 3,300 -723 Descending FAA TRACON SMA TRACON (SMA)
Fri 07:51:12 PM 33.0878 -97.0664 155° Southeast 195 224 3,000 -304 Descending FAA TRACON SMA TRACON (SMA)
Fri 07:51:49 PM 33.0658 -97.0542 155° Southeast 169 194 2,900 -162 Descending FAA TRACON SMA TRACON (SMA)

Login

Don't have an account? Register now (free) for customized features, flight alerts, and more!